createdAt,value
2022-08-02T00:00:59.754Z,63.11
2022-08-02T00:03:27.889Z,62.83
2022-08-02T00:05:56.232Z,62.86
2022-08-02T00:08:24.402Z,63.66
2022-08-02T00:10:52.574Z,63.92
2022-08-02T00:13:22.068Z,63.99
2022-08-02T00:15:50.285Z,64.63
2022-08-02T00:18:18.479Z,64.52
2022-08-02T00:20:46.602Z,64.79
2022-08-02T00:23:14.693Z,63.59
2022-08-02T00:25:55.352Z,62.35
2022-08-02T00:28:28.025Z,62.53
2022-08-02T00:30:57.621Z,62.59
2022-08-02T00:34:27.210Z,62.96
2022-08-02T00:36:14.541Z,63.52
2022-08-02T00:38:43.103Z,62.84
2022-08-02T00:41:17.372Z,63.36
2022-08-02T00:43:49.478Z,62.18
2022-08-02T00:46:20.283Z,62.67
2022-08-02T00:48:50.333Z,62.51
2022-08-02T00:51:19.005Z,62.79
2022-08-02T00:53:47.184Z,63.66
2022-08-02T00:56:15.269Z,62.71
2022-08-02T00:58:43.291Z,62.74
2022-08-02T01:01:12.815Z,62.04
2022-08-02T01:03:40.995Z,63.42
2022-08-02T01:06:11.144Z,62.41
2022-08-02T01:08:40.132Z,62.67
2022-08-02T01:11:08.877Z,63.55
2022-08-02T01:13:37.569Z,62.94
2022-08-02T01:16:17.214Z,63.10
2022-08-02T01:18:52.314Z,62.24
2022-08-02T01:21:42.052Z,62.30
2022-08-02T01:24:26.166Z,62.66
2022-08-02T01:27:06.494Z,63.91
2022-08-02T01:29:44.610Z,63.00
2022-08-02T01:32:17.446Z,62.18
2022-08-02T01:34:53.640Z,62.72
2022-08-02T01:37:28.386Z,63.56
2022-08-02T01:40:03.576Z,63.00
2022-08-02T01:42:34.204Z,63.70
2022-08-02T01:45:05.483Z,64.04
2022-08-02T01:47:40.481Z,64.13
2022-08-02T01:50:13.580Z,63.63
2022-08-02T01:52:53.309Z,63.33
2022-08-02T01:55:33.441Z,62.59
2022-08-02T01:58:20.216Z,62.87
2022-08-02T02:00:50.927Z,63.71
2022-08-02T02:03:24.641Z,62.66
2022-08-02T02:05:56.836Z,63.14
2022-08-02T02:08:28.783Z,61.64
2022-08-02T02:12:14.452Z,61.79
2022-08-02T02:13:51.193Z,61.48
2022-08-02T02:16:23.038Z,62.18
2022-08-02T02:18:54.348Z,62.25
2022-08-02T02:21:23.015Z,62.39
2022-08-02T02:23:51.166Z,61.82
2022-08-02T02:26:29.439Z,61.76
2022-08-02T02:29:03.064Z,63.14
2022-08-02T02:31:37.483Z,63.62
2022-08-02T02:34:11.348Z,63.94
2022-08-02T02:36:43.443Z,64.08
2022-08-02T02:39:15.483Z,62.71
2022-08-02T02:41:46.774Z,62.75
2022-08-02T02:44:19.809Z,61.84
2022-08-02T02:46:54.640Z,61.31
2022-08-02T02:49:24.554Z,62.25
2022-08-02T02:51:54.795Z,62.28
2022-08-02T02:54:33.515Z,62.67
2022-08-02T02:57:05.985Z,63.50
2022-08-02T02:59:36.292Z,64.46
2022-08-02T03:02:13.757Z,63.42
2022-08-02T03:04:56.277Z,63.10
2022-08-02T03:07:25.022Z,61.23
2022-08-02T03:09:54.412Z,61.02
2022-08-02T03:12:31.972Z,61.13
2022-08-02T03:15:02.244Z,61.76
2022-08-02T03:17:42.494Z,61.37
2022-08-02T03:20:14.061Z,61.16
2022-08-02T03:22:42.960Z,60.53
2022-08-02T03:25:13.260Z,61.06
2022-08-02T03:27:42.008Z,61.26
2022-08-02T03:30:14.158Z,60.31
2022-08-02T03:32:48.099Z,61.49
2022-08-02T03:35:23.735Z,61.31
2022-08-02T03:37:56.859Z,62.44
2022-08-02T03:40:28.491Z,63.05
2022-08-02T03:42:57.600Z,63.12
2022-08-02T03:45:27.216Z,63.64
2022-08-02T03:47:58.761Z,63.45
2022-08-02T03:50:28.881Z,62.89
2022-08-02T03:52:58.297Z,62.87
2022-08-02T03:55:26.696Z,63.49
2022-08-02T03:57:55.359Z,62.71
2022-08-02T04:00:24.546Z,62.88
2022-08-02T04:02:53.038Z,63.13
2022-08-02T04:05:22.575Z,64.06
2022-08-02T04:08:36.151Z,64.38
2022-08-02T04:10:53.988Z,64.29
2022-08-02T04:13:27.459Z,63.87
2022-08-02T04:16:07.593Z,62.96
2022-08-02T04:18:41.909Z,61.85
2022-08-02T04:21:16.781Z,61.50
2022-08-02T04:23:49.615Z,62.09
2022-08-02T04:26:19.505Z,61.41
2022-08-02T04:28:56.877Z,61.53
2022-08-02T04:31:24.986Z,61.05
2022-08-02T04:33:53.545Z,62.07
2022-08-02T04:36:31.606Z,62.10
2022-08-02T04:39:00.216Z,62.11
2022-08-02T04:41:43.871Z,62.56
2022-08-02T04:44:12.885Z,60.92
2022-08-02T04:46:41.920Z,60.32
2022-08-02T04:49:10.189Z,60.65
2022-08-02T04:51:42.026Z,59.95
2022-08-02T04:54:11.939Z,59.89
2022-08-02T04:56:40.377Z,60.35
2022-08-02T04:59:08.861Z,60.82
2022-08-02T05:01:37.121Z,60.99
2022-08-02T05:04:05.434Z,60.62
2022-08-02T05:06:33.695Z,59.98
2022-08-02T05:09:03.212Z,59.75
2022-08-02T05:11:36.374Z,58.69
2022-08-02T05:14:06.553Z,59.20
2022-08-02T05:16:34.634Z,58.64
2022-08-02T05:19:03.254Z,57.39
2022-08-02T05:21:32.299Z,56.93
2022-08-02T05:24:01.817Z,56.78
2022-08-02T05:26:29.935Z,55.47
2022-08-02T05:28:58.047Z,55.94
2022-08-02T05:31:26.136Z,54.95
2022-08-02T05:33:54.229Z,56.05
2022-08-02T05:36:22.838Z,55.45
2022-08-02T05:38:52.935Z,54.13
2022-08-02T05:41:29.244Z,53.53
2022-08-02T05:43:57.352Z,53.50
2022-08-02T05:46:25.424Z,52.67
2022-08-02T05:48:53.466Z,52.73
2022-08-02T05:51:29.659Z,52.84
2022-08-02T05:54:13.346Z,52.87
2022-08-02T05:56:52.540Z,51.89
2022-08-02T05:59:33.438Z,52.25
2022-08-02T06:02:21.117Z,52.81
2022-08-02T06:05:00.399Z,53.29
2022-08-02T06:07:30.795Z,53.62
2022-08-02T06:09:59.759Z,52.70
2022-08-02T06:12:33.847Z,50.60
2022-08-02T06:15:04.627Z,50.73
2022-08-02T06:17:33.884Z,50.89
2022-08-02T06:20:03.565Z,49.62
2022-08-02T06:22:37.148Z,50.21
2022-08-02T06:25:47.832Z,49.59
2022-08-02T06:27:58.847Z,49.39
2022-08-02T06:30:27.731Z,48.46
2022-08-02T06:32:56.256Z,48.18
2022-08-02T06:35:30.600Z,47.44
2022-08-02T06:38:03.512Z,47.86
2022-08-02T06:40:37.005Z,46.92
2022-08-02T06:43:14.647Z,45.99
2022-08-02T06:45:42.880Z,46.16
2022-08-02T06:48:11.824Z,45.79
2022-08-02T06:50:41.915Z,45.76
2022-08-02T06:53:11.151Z,46.58
2022-08-02T06:55:43.922Z,47.07
2022-08-02T06:58:14.717Z,47.17
2022-08-02T07:00:44.310Z,47.05
2022-08-02T07:03:12.579Z,47.93
2022-08-02T07:05:41.760Z,48.10
2022-08-02T07:08:09.843Z,48.33
2022-08-02T07:10:37.847Z,48.29
2022-08-02T07:13:05.898Z,48.64
2022-08-02T07:15:35.508Z,48.16
2022-08-02T07:18:03.811Z,48.31
2022-08-02T07:20:31.887Z,47.84
2022-08-02T07:23:00.019Z,46.24
2022-08-02T07:26:01.645Z,46.21
2022-08-02T07:28:23.581Z,46.35
2022-08-02T07:30:53.596Z,46.52
2022-08-02T07:33:38.262Z,46.53
2022-08-02T07:36:09.921Z,45.43
2022-08-02T07:38:45.561Z,45.06
2022-08-02T07:41:13.808Z,44.07
2022-08-02T07:43:41.991Z,44.13
2022-08-02T07:46:11.341Z,44.35
2022-08-02T07:48:39.376Z,43.91
2022-08-02T07:51:07.575Z,44.94
2022-08-02T07:53:50.399Z,45.92
2022-08-02T07:56:19.695Z,46.82
2022-08-02T07:58:47.723Z,47.37
2022-08-02T08:01:17.230Z,47.16
2022-08-02T08:03:45.774Z,47.37
2022-08-02T08:06:14.863Z,47.43
2022-08-02T08:08:44.489Z,47.79
2022-08-02T08:11:12.614Z,47.51
2022-08-02T08:13:41.164Z,48.52
2022-08-02T08:16:09.248Z,48.78
2022-08-02T08:18:38.744Z,48.92
2022-08-02T08:21:07.159Z,48.33
2022-08-02T08:23:35.717Z,48.45
2022-08-02T08:26:04.815Z,47.93
2022-08-02T08:28:32.952Z,47.54
2022-08-02T08:31:01.759Z,47.78
2022-08-02T08:33:29.841Z,47.50
2022-08-02T08:35:59.298Z,47.76
2022-08-02T08:38:30.827Z,47.98
2022-08-02T08:40:59.205Z,47.52
2022-08-02T08:43:27.289Z,47.75
2022-08-02T08:45:56.807Z,47.57
2022-08-02T08:48:30.408Z,47.57
2022-08-02T08:51:11.458Z,46.95
2022-08-02T08:53:44.900Z,47.16
2022-08-02T08:56:16.551Z,47.01
2022-08-02T08:58:47.409Z,46.77
2022-08-02T09:01:16.807Z,46.70
2022-08-02T09:03:47.027Z,46.87
2022-08-02T09:06:16.505Z,46.84
2022-08-02T09:08:45.147Z,46.38
2022-08-02T09:11:18.434Z,46.17
2022-08-02T09:13:55.013Z,46.07
2022-08-02T09:16:32.787Z,46.17
2022-08-02T09:19:02.484Z,46.21
2022-08-02T09:21:39.026Z,46.17
2022-08-02T09:24:18.875Z,45.86
2022-08-02T09:26:48.784Z,45.40
2022-08-02T09:29:18.449Z,44.99
2022-08-02T09:31:50.637Z,45.91
2022-08-02T09:34:19.886Z,45.57
2022-08-02T09:36:54.754Z,45.77
2022-08-02T09:39:26.313Z,45.40
2022-08-02T09:42:08.348Z,45.52
2022-08-02T09:44:36.558Z,45.47
2022-08-02T09:47:18.051Z,45.75
2022-08-02T09:49:52.229Z,45.87
2022-08-02T09:52:36.814Z,45.59
2022-08-02T09:55:13.094Z,44.75
2022-08-02T09:57:41.715Z,45.12
2022-08-02T10:00:13.987Z,45.79
2022-08-02T10:03:08.288Z,45.24
2022-08-02T10:05:59.126Z,45.09
2022-08-02T10:08:34.077Z,44.88
2022-08-02T10:11:03.487Z,44.99
2022-08-02T10:13:34.382Z,45.00
2022-08-02T10:16:03.696Z,44.56
2022-08-02T10:18:40.894Z,44.44
2022-08-02T10:21:20.439Z,44.95
2022-08-02T10:23:51.878Z,45.10
2022-08-02T10:26:22.106Z,44.54
2022-08-02T10:28:51.175Z,44.09
2022-08-02T10:31:26.533Z,43.57
2022-08-02T10:33:59.238Z,43.54
2022-08-02T10:36:30.820Z,43.49
2022-08-02T10:39:03.082Z,43.78
2022-08-02T10:41:49.509Z,43.80
2022-08-02T10:44:27.658Z,44.14
2022-08-02T10:47:23.424Z,43.95
2022-08-02T10:49:55.942Z,43.42
2022-08-02T10:52:25.019Z,43.40
2022-08-02T10:54:59.823Z,43.61
2022-08-02T10:57:30.463Z,43.09
2022-08-02T11:00:03.067Z,43.72
2022-08-02T11:02:42.690Z,43.53
2022-08-02T11:05:16.046Z,43.74
2022-08-02T11:07:49.168Z,43.83
2022-08-02T11:10:38.331Z,43.66
2022-08-02T11:13:15.080Z,43.55
2022-08-02T11:16:01.435Z,43.00
2022-08-02T11:19:06.781Z,42.75
2022-08-02T11:21:36.751Z,41.99
2022-08-02T11:24:29.298Z,41.00
2022-08-02T11:27:00.517Z,41.24
2022-08-02T11:29:40.052Z,41.56
2022-08-02T11:32:10.466Z,41.73
2022-08-02T11:34:40.690Z,42.08
2022-08-02T11:37:08.803Z,42.47
2022-08-02T11:39:37.095Z,42.08
2022-08-02T11:42:06.859Z,42.16
2022-08-02T11:44:42.740Z,40.72
2022-08-02T11:47:10.999Z,40.33
2022-08-02T11:49:39.478Z,40.29
2022-08-02T11:52:11.128Z,40.14
2022-08-02T11:54:41.941Z,39.85
2022-08-02T11:57:20.175Z,40.54
2022-08-02T11:59:52.123Z,40.31
2022-08-02T12:02:23.178Z,40.18
2022-08-02T12:04:58.829Z,40.58
2022-08-02T12:07:35.345Z,40.38
2022-08-02T12:10:08.755Z,39.43
2022-08-02T12:12:51.138Z,39.97
2022-08-02T12:15:32.242Z,40.64
2022-08-02T12:18:18.731Z,40.09
2022-08-02T12:20:47.409Z,40.38
2022-08-02T12:23:15.695Z,40.64
2022-08-02T12:25:43.949Z,39.83
2022-08-02T12:28:22.624Z,39.78
2022-08-02T12:30:53.731Z,39.51
2022-08-02T12:33:23.491Z,39.49
2022-08-02T12:35:52.093Z,39.67
2022-08-02T12:38:20.946Z,39.18
2022-08-02T12:40:49.489Z,38.56
2022-08-02T12:43:22.557Z,38.85
2022-08-02T12:45:53.764Z,38.75
2022-08-02T12:48:38.393Z,38.71
2022-08-02T12:51:56.981Z,38.92
2022-08-02T12:54:26.889Z,38.84
2022-08-02T12:57:11.677Z,37.64
2022-08-02T12:59:44.501Z,37.62
2022-08-02T13:02:16.671Z,37.64
2022-08-02T13:04:50.071Z,37.40
2022-08-02T13:07:19.534Z,37.16
2022-08-02T13:09:48.429Z,36.75
2022-08-02T13:12:17.414Z,37.20
2022-08-02T13:14:47.190Z,37.16
2022-08-02T13:17:15.176Z,37.36
2022-08-02T13:19:43.175Z,37.43
2022-08-02T13:22:11.664Z,37.14
2022-08-02T13:24:56.455Z,37.26
2022-08-02T13:27:28.646Z,37.33
2022-08-02T13:29:59.970Z,37.14
2022-08-02T13:32:28.898Z,37.28
2022-08-02T13:34:57.997Z,36.83
2022-08-02T13:37:26.815Z,36.87
2022-08-02T13:40:19.975Z,37.45
2022-08-02T13:42:43.733Z,37.20
2022-08-02T13:45:14.637Z,37.41
2022-08-02T13:47:57.324Z,37.06
2022-08-02T13:50:31.696Z,37.43
2022-08-02T13:52:59.795Z,37.50
2022-08-02T13:55:28.009Z,36.83
2022-08-02T13:57:56.282Z,36.92
2022-08-02T14:00:35.684Z,36.46
2022-08-02T14:03:06.167Z,36.00
2022-08-02T14:05:39.746Z,36.51
2022-08-02T14:08:18.227Z,36.16
2022-08-02T14:10:47.555Z,36.41
2022-08-02T14:13:15.663Z,35.48
2022-08-02T14:15:45.694Z,35.47
2022-08-02T14:18:15.245Z,35.32
2022-08-02T14:20:45.289Z,35.55
2022-08-02T14:23:13.425Z,35.46
2022-08-02T14:25:42.116Z,35.60
2022-08-02T14:28:10.117Z,35.39
2022-08-02T14:30:38.206Z,35.10
2022-08-02T14:33:07.606Z,35.26
2022-08-02T14:35:35.659Z,35.85
2022-08-02T14:38:03.712Z,35.53
2022-08-02T14:40:32.236Z,35.31
2022-08-02T14:43:01.788Z,35.29
2022-08-02T14:45:39.809Z,35.33
2022-08-02T14:48:11.802Z,36.04
2022-08-02T14:50:39.869Z,35.78
2022-08-02T14:53:12.409Z,35.67
2022-08-02T14:55:42.700Z,35.28
2022-08-02T14:58:11.271Z,35.55
2022-08-02T15:00:41.458Z,35.41
2022-08-02T15:03:12.599Z,35.32
2022-08-02T15:05:40.795Z,35.74
2022-08-02T15:08:09.005Z,35.62
2022-08-02T15:10:37.478Z,36.15
2022-08-02T15:13:05.730Z,35.61
2022-08-02T15:15:42.892Z,35.52
2022-08-02T15:18:14.279Z,35.26
2022-08-02T15:20:46.184Z,35.39
2022-08-02T15:23:34.839Z,35.16
2022-08-02T15:26:06.108Z,35.75
2022-08-02T15:28:34.270Z,35.87
2022-08-02T15:31:02.303Z,35.97
2022-08-02T15:33:31.688Z,36.44
2022-08-02T15:35:59.721Z,36.43
2022-08-02T15:38:27.887Z,36.20
2022-08-02T15:40:55.959Z,35.83
2022-08-02T15:43:24.075Z,35.24
2022-08-02T15:45:52.206Z,35.57
2022-08-02T15:48:20.956Z,35.51
2022-08-02T15:50:50.349Z,35.66
2022-08-02T15:53:18.319Z,36.04
2022-08-02T15:56:04.263Z,35.98
2022-08-02T15:58:34.584Z,35.96
2022-08-02T16:01:12.573Z,36.75
2022-08-02T16:03:40.667Z,36.89
2022-08-02T16:06:10.093Z,36.83
2022-08-02T16:08:38.170Z,36.05
2022-08-02T16:11:12.822Z,35.77
2022-08-02T16:13:54.794Z,35.93
2022-08-02T16:16:24.691Z,35.43
2022-08-02T16:18:53.343Z,36.09
2022-08-02T16:21:24.553Z,36.11
2022-08-02T16:24:01.477Z,36.08
2022-08-02T16:26:31.688Z,36.59
2022-08-02T16:29:01.017Z,36.27
2022-08-02T16:31:29.523Z,35.90
2022-08-02T16:33:57.887Z,36.46
2022-08-02T16:36:28.230Z,36.71
2022-08-02T16:38:56.887Z,36.57
2022-08-02T16:41:50.322Z,36.56
2022-08-02T16:44:13.622Z,35.99
2022-08-02T16:46:41.650Z,35.88
2022-08-02T16:50:07.276Z,36.15
2022-08-02T16:52:02.694Z,36.50
2022-08-02T16:54:30.750Z,36.80
2022-08-02T16:56:58.723Z,36.48
2022-08-02T16:59:27.681Z,36.48
2022-08-02T17:04:50.323Z,36.24
2022-08-02T17:08:06.151Z,36.56
2022-08-02T17:10:09.883Z,36.75
2022-08-02T17:12:38.498Z,37.27
2022-08-02T17:16:01.427Z,37.52
2022-08-02T17:17:56.807Z,37.69
2022-08-02T17:20:25.216Z,37.64
2022-08-02T17:22:54.695Z,37.33
2022-08-02T17:25:24.762Z,37.49
2022-08-02T17:27:55.632Z,37.36
2022-08-02T17:30:26.832Z,37.57
2022-08-02T17:32:57.721Z,37.25
2022-08-02T17:35:43.386Z,37.43
2022-08-02T17:38:26.230Z,37.69
2022-08-02T17:40:55.638Z,38.02
2022-08-02T17:43:25.988Z,37.83
2022-08-02T17:46:01.004Z,37.87
2022-08-02T17:48:54.676Z,37.76
2022-08-02T17:52:15.897Z,37.57
2022-08-02T17:54:14.083Z,37.57
2022-08-02T17:56:42.904Z,37.60
2022-08-02T17:59:20.410Z,37.73
2022-08-02T18:01:52.810Z,37.66
2022-08-02T18:04:26.818Z,38.13
2022-08-02T18:06:59.106Z,37.84
2022-08-02T18:09:34.574Z,38.10
2022-08-02T18:12:02.714Z,38.58
2022-08-02T18:14:30.747Z,38.83
2022-08-02T18:16:58.896Z,38.92
2022-08-02T18:19:33.147Z,38.53
2022-08-02T18:22:11.585Z,39.21
2022-08-02T18:24:41.558Z,39.17
2022-08-02T18:27:13.532Z,39.45
2022-08-02T18:29:41.610Z,39.40
2022-08-02T18:32:11.353Z,40.06
2022-08-02T18:34:40.053Z,40.45
2022-08-02T18:37:08.322Z,40.35
2022-08-02T18:39:38.551Z,40.31
2022-08-02T18:42:08.156Z,40.79
2022-08-02T18:44:38.784Z,40.98
2022-08-02T18:47:07.603Z,40.78
2022-08-02T18:52:31.164Z,41.46
2022-08-02T18:54:59.661Z,41.55
2022-08-02T18:58:18.297Z,41.88
2022-08-02T19:00:20.651Z,42.40
2022-08-02T19:02:54.045Z,42.61
2022-08-02T19:05:23.944Z,42.63
2022-08-02T19:08:12.804Z,43.07
2022-08-02T19:10:49.012Z,43.33
2022-08-02T19:13:19.317Z,43.61
2022-08-02T19:15:48.238Z,43.76
2022-08-02T19:18:16.406Z,44.14
2022-08-02T19:20:48.309Z,44.31
2022-08-02T19:23:17.184Z,44.92
2022-08-02T19:25:54.543Z,45.03
2022-08-02T19:28:26.424Z,45.04
2022-08-02T19:30:55.428Z,45.29
2022-08-02T19:33:54.496Z,45.46
2022-08-02T19:36:13.238Z,45.43
2022-08-02T19:38:45.372Z,45.97
2022-08-02T19:41:16.062Z,45.91
2022-08-02T19:44:25.452Z,46.09
2022-08-02T19:46:33.538Z,46.48
2022-08-02T19:49:16.366Z,46.60
2022-08-02T19:51:55.221Z,47.01
2022-08-02T19:54:24.275Z,47.12
2022-08-02T19:57:16.991Z,47.07
2022-08-02T19:59:49.672Z,46.94
2022-08-02T20:02:18.683Z,47.31
2022-08-02T20:04:50.047Z,47.12
2022-08-02T20:07:52.235Z,47.51
2022-08-02T20:10:11.356Z,47.67
2022-08-02T20:12:58.491Z,47.55
2022-08-02T20:15:51.734Z,48.48
2022-08-02T20:21:05.300Z,48.98
2022-08-02T20:23:53.282Z,48.88
2022-08-02T20:26:21.406Z,49.12
2022-08-02T20:28:50.059Z,49.02
2022-08-02T20:31:19.503Z,49.50
2022-08-02T20:33:55.680Z,49.53
2022-08-02T20:36:24.463Z,49.76
2022-08-02T20:38:52.710Z,49.94
2022-08-02T20:41:22.705Z,50.19
2022-08-02T20:43:51.049Z,50.46
2022-08-02T20:46:20.475Z,50.59
2022-08-02T20:48:51.588Z,50.85
2022-08-02T20:51:33.337Z,50.99
2022-08-02T20:54:02.487Z,51.38
2022-08-02T20:56:30.942Z,51.46
2022-08-02T20:59:04.093Z,52.02
2022-08-02T21:01:56.991Z,52.55
2022-08-02T21:04:26.227Z,52.85
2022-08-02T21:06:55.753Z,52.99
2022-08-02T21:09:52.642Z,53.38
2022-08-02T21:12:12.938Z,53.51
2022-08-02T21:14:41.127Z,53.87
2022-08-02T21:17:11.197Z,54.76
2022-08-02T21:19:44.322Z,55.40
2022-08-02T21:22:13.109Z,56.17
2022-08-02T21:24:42.965Z,57.21
2022-08-02T21:27:51.660Z,57.72
2022-08-02T21:30:02.576Z,56.79
2022-08-02T21:32:32.173Z,56.58
2022-08-02T21:35:01.780Z,56.49
2022-08-02T21:37:33.121Z,57.43
2022-08-02T21:40:13.883Z,57.62
2022-08-02T21:42:42.088Z,58.02
2022-08-02T21:45:17.230Z,58.06
2022-08-02T21:47:49.304Z,58.22
2022-08-02T21:50:18.964Z,58.00
2022-08-02T21:52:52.079Z,58.01
2022-08-02T21:55:24.052Z,57.64
2022-08-02T21:58:09.494Z,57.62
2022-08-02T22:00:38.177Z,57.78
2022-08-02T22:05:55.607Z,57.97
2022-08-02T22:08:23.856Z,58.49
2022-08-02T22:11:04.581Z,58.87
2022-08-02T22:13:47.159Z,58.62
2022-08-02T22:16:18.537Z,58.70
2022-08-02T22:18:50.381Z,59.09
2022-08-02T22:21:22.694Z,59.30
2022-08-02T22:23:51.801Z,59.39
2022-08-02T22:26:20.331Z,59.00
2022-08-02T22:28:50.475Z,59.02
2022-08-02T22:31:41.437Z,59.33
2022-08-02T22:34:37.055Z,59.76
2022-08-02T22:36:59.663Z,59.59
2022-08-02T22:39:28.590Z,59.60
2022-08-02T22:42:05.211Z,59.64
2022-08-02T22:44:34.976Z,59.67
2022-08-02T22:47:07.516Z,59.59
2022-08-02T22:49:53.115Z,59.59
2022-08-02T22:52:24.327Z,60.19
2022-08-02T22:54:52.471Z,60.47
2022-08-02T22:57:25.011Z,60.52
2022-08-02T22:58:36.281Z,36.16
2022-08-02T22:58:55.200Z,48.66
2022-08-02T22:59:00.142Z,41.12
2022-08-02T22:59:10.496Z,57.89
2022-08-02T22:59:59.809Z,60.67
2022-08-02T23:02:29.993Z,60.94
2022-08-02T23:04:59.691Z,61.23
2022-08-02T23:07:27.946Z,61.16
2022-08-02T23:09:57.638Z,61.16
2022-08-02T23:12:25.896Z,61.19
2022-08-02T23:14:54.103Z,61.36
2022-08-02T23:17:41.907Z,61.71
2022-08-02T23:20:13.788Z,61.83
2022-08-02T23:22:42.266Z,61.78
2022-08-02T23:25:10.734Z,62.02
2022-08-02T23:27:38.788Z,61.80
2022-08-02T23:30:10.342Z,61.68
2022-08-02T23:32:40.558Z,62.04
2022-08-02T23:35:17.093Z,62.27
2022-08-02T23:37:59.080Z,62.07
2022-08-02T23:40:40.611Z,61.88
2022-08-02T23:43:14.918Z,62.35
2022-08-02T23:45:46.000Z,62.59
2022-08-02T23:48:14.555Z,62.89
2022-08-02T23:50:43.996Z,62.94
2022-08-02T23:53:12.049Z,63.54
2022-08-02T23:55:40.111Z,63.35
2022-08-02T23:58:08.144Z,63.33
